createdAt,value
2022-12-14T00:00:10.292Z,99935.69
2022-12-14T00:02:38.650Z,99926.47
2022-12-14T00:05:08.070Z,99938.03
2022-12-14T00:07:37.884Z,99937.84
2022-12-14T00:10:07.386Z,99942.78
2022-12-14T00:12:35.747Z,99947.75
2022-12-14T00:15:05.144Z,99941.06
2022-12-14T00:17:33.770Z,99930.06
2022-12-14T00:20:02.227Z,99941.88
2022-12-14T00:22:30.665Z,99938.56
2022-12-14T00:25:00.542Z,99938.56
2022-12-14T00:27:29.560Z,99932.56
2022-12-14T00:29:58.115Z,99928.41
2022-12-14T00:32:26.754Z,99922.47
2022-12-14T00:34:55.028Z,99922.47
2022-12-14T00:37:23.276Z,99929.06
2022-12-14T00:39:52.227Z,99925.84
2022-12-14T00:42:21.909Z,99924.03
2022-12-14T00:44:50.326Z,99937.59
2022-12-14T00:47:18.746Z,99938.41
2022-12-14T00:49:47.131Z,99928.34
2022-12-14T00:52:17.265Z,99930.06
2022-12-14T00:54:45.794Z,99931.66
2022-12-14T00:57:14.202Z,99937.59
2022-12-14T00:59:44.303Z,99933.44
2022-12-14T01:02:12.736Z,99940.22
2022-12-14T01:04:41.054Z,99936.84
2022-12-14T01:07:09.501Z,99925.88
2022-12-14T01:09:37.788Z,99930.06
2022-12-14T01:12:07.059Z,99931.81
2022-12-14T01:14:35.493Z,99926.53
2022-12-14T01:17:07.074Z,99932.44
2022-12-14T01:19:36.125Z,99939.84
2022-12-14T01:22:04.483Z,99933.22
2022-12-14T01:24:32.823Z,99921.44
2022-12-14T01:27:02.374Z,99934.16
2022-12-14T01:29:30.597Z,99930.81
2022-12-14T01:31:58.886Z,99921.31
2022-12-14T01:34:29.591Z,99922.09
2022-12-14T01:36:57.843Z,99925.41
2022-12-14T01:39:26.395Z,99919.59
2022-12-14T01:41:54.688Z,99923.75
2022-12-14T01:44:56.536Z,99930.34
2022-12-14T01:47:32.201Z,99927.78
2022-12-14T01:50:09.942Z,99926.19
2022-12-14T01:52:42.492Z,99920.16
2022-12-14T01:55:15.681Z,99924.47
2022-12-14T01:57:50.211Z,99929.50
2022-12-14T02:00:18.666Z,99930.44
2022-12-14T02:02:54.511Z,99923.66
2022-12-14T02:05:26.350Z,99913.56
2022-12-14T02:07:56.651Z,99917.72
2022-12-14T02:10:28.869Z,99911.75
2022-12-14T02:13:04.676Z,99917.72
2022-12-14T02:15:34.898Z,99912.47
2022-12-14T02:18:05.881Z,99923.47
2022-12-14T02:20:48.183Z,99913.19
2022-12-14T02:24:16.238Z,99917.22
2022-12-14T02:27:11.237Z,99920.44
2022-12-14T02:30:07.657Z,99922.03
2022-12-14T02:33:09.856Z,99920.13
2022-12-14T02:35:47.928Z,99921.88
2022-12-14T02:38:43.225Z,99922.66
2022-12-14T02:41:23.434Z,99921.03
2022-12-14T02:44:03.734Z,99931.00
2022-12-14T02:46:45.108Z,99925.09
2022-12-14T02:49:31.995Z,99933.50
2022-12-14T02:52:08.138Z,99930.06
2022-12-14T02:54:47.264Z,99931.63
2022-12-14T02:57:22.465Z,99926.59
2022-12-14T02:59:55.289Z,99936.50
2022-12-14T03:02:26.469Z,99932.28
2022-12-14T03:04:54.838Z,99937.25
2022-12-14T03:07:36.770Z,99930.41
2022-12-14T03:10:17.812Z,99936.34
2022-12-14T03:12:52.806Z,99942.97
2022-12-14T03:15:24.641Z,99932.78
2022-12-14T03:18:00.084Z,99929.31
2022-12-14T03:20:34.609Z,99923.38
2022-12-14T03:23:08.852Z,99930.09
2022-12-14T03:25:46.082Z,99935.94
2022-12-14T03:28:23.323Z,99933.31
2022-12-14T03:31:00.313Z,99934.97
2022-12-14T03:33:32.773Z,99937.47
2022-12-14T03:36:10.610Z,99936.47
2022-12-14T03:38:43.394Z,99942.22
2022-12-14T03:41:24.143Z,99936.34
2022-12-14T03:44:12.053Z,99929.66
2022-12-14T03:46:51.250Z,99938.06
2022-12-14T03:49:35.098Z,99940.63
2022-12-14T03:52:10.322Z,99938.28
2022-12-14T03:54:50.845Z,99939.22
2022-12-14T03:57:31.852Z,99941.66
2022-12-14T04:00:07.110Z,99939.22
2022-12-14T04:02:42.714Z,99942.66
2022-12-14T04:05:20.053Z,99942.66
2022-12-14T04:07:56.598Z,99946.03
2022-12-14T04:10:47.164Z,99943.53
2022-12-14T04:13:38.593Z,99936.94
2022-12-14T04:16:32.011Z,99939.44
2022-12-14T04:19:07.763Z,99936.94
2022-12-14T04:21:44.633Z,99938.44
2022-12-14T04:24:37.771Z,99931.75
2022-12-14T04:27:11.153Z,99931.22
2022-12-14T04:29:59.107Z,99918.66
2022-12-14T04:32:35.032Z,99933.94
2022-12-14T04:35:13.456Z,99927.19
2022-12-14T04:37:49.314Z,99937.09
2022-12-14T04:40:23.137Z,99932.72
2022-12-14T04:42:56.735Z,99932.63
2022-12-14T04:45:28.732Z,99934.31
2022-12-14T04:48:07.125Z,99926.59
2022-12-14T04:50:40.689Z,99929.94
2022-12-14T04:53:16.136Z,99929.03
2022-12-14T04:55:52.231Z,99924.81
2022-12-14T04:58:25.403Z,99923.00
2022-12-14T05:01:12.928Z,99929.66
2022-12-14T05:03:57.895Z,99924.41
2022-12-14T05:06:34.219Z,99925.91
2022-12-14T05:09:15.989Z,99919.09
2022-12-14T05:11:54.003Z,99911.34
2022-12-14T05:14:29.707Z,99906.94
2022-12-14T05:17:02.295Z,99904.28
2022-12-14T05:19:33.548Z,99909.16
2022-12-14T05:22:06.816Z,99909.00
2022-12-14T05:24:36.665Z,99906.34
2022-12-14T05:27:05.234Z,99913.97
2022-12-14T05:29:33.967Z,99904.69
2022-12-14T05:32:03.171Z,99906.97
2022-12-14T05:34:31.955Z,99909.47
2022-12-14T05:37:00.348Z,99907.84
2022-12-14T05:39:28.879Z,99917.00
2022-12-14T05:41:58.810Z,99922.84
2022-12-14T05:44:27.188Z,99914.34
2022-12-14T05:46:56.097Z,99914.97
2022-12-14T05:49:24.472Z,99916.69
2022-12-14T05:51:53.079Z,99918.34
2022-12-14T05:54:21.558Z,99923.38
2022-12-14T05:56:50.053Z,99923.38
2022-12-14T05:59:19.933Z,99924.97
2022-12-14T06:01:50.812Z,99927.53
2022-12-14T06:04:19.992Z,99927.22
2022-12-14T06:06:48.356Z,99931.22
2022-12-14T06:09:17.606Z,99935.31
2022-12-14T06:11:47.474Z,99941.97
2022-12-14T06:14:16.140Z,99941.81
2022-12-14T06:16:48.074Z,99941.72
2022-12-14T06:19:16.877Z,99944.31
2022-12-14T06:21:46.211Z,99942.59
2022-12-14T06:24:14.957Z,99942.75
2022-12-14T06:26:43.585Z,99941.19
2022-12-14T06:29:16.998Z,99936.16
2022-12-14T06:31:49.201Z,99934.44
2022-12-14T06:34:22.258Z,99936.22
2022-12-14T06:36:53.406Z,99942.28
2022-12-14T06:39:21.948Z,99935.47
2022-12-14T06:41:52.119Z,99939.63
2022-12-14T06:44:21.163Z,99941.34
2022-12-14T06:46:52.742Z,99940.41
2022-12-14T06:49:21.134Z,99946.84
2022-12-14T06:51:49.879Z,99946.66
2022-12-14T06:54:19.859Z,99940.00
2022-12-14T06:56:48.980Z,99948.38
2022-12-14T06:59:18.093Z,99946.91
2022-12-14T07:01:50.125Z,99931.09
2022-12-14T07:04:21.737Z,99945.34
2022-12-14T07:06:50.317Z,99940.22
2022-12-14T07:09:19.621Z,99951.06
2022-12-14T07:11:50.547Z,99937.88
2022-12-14T07:14:20.887Z,99944.78
2022-12-14T07:16:49.347Z,99952.56
2022-12-14T07:19:20.124Z,99954.44
2022-12-14T07:21:49.719Z,99947.13
2022-12-14T07:24:18.471Z,99964.41
2022-12-14T07:26:47.275Z,99951.22
2022-12-14T07:29:17.341Z,99952.22
2022-12-14T07:31:49.351Z,99950.63
2022-12-14T07:34:20.213Z,99952.53
2022-12-14T07:36:52.403Z,99949.75
2022-12-14T07:39:24.983Z,99962.97
2022-12-14T07:41:54.864Z,99960.13
2022-12-14T07:44:23.393Z,99960.66
2022-12-14T07:46:52.257Z,99953.63
2022-12-14T07:49:22.817Z,99949.16
2022-12-14T07:51:53.117Z,99948.00
2022-12-14T07:54:21.609Z,99940.72
2022-12-14T07:56:52.041Z,99945.94
2022-12-14T07:59:21.858Z,99937.38
2022-12-14T08:01:55.890Z,99944.44
2022-12-14T08:04:25.955Z,99949.75
2022-12-14T08:06:54.343Z,99941.41
2022-12-14T08:09:22.873Z,99951.09
2022-12-14T08:11:51.155Z,99945.41
2022-12-14T08:14:20.687Z,99949.41
2022-12-14T08:16:51.104Z,99948.56
2022-12-14T08:19:20.416Z,99940.47
2022-12-14T08:21:50.172Z,99938.88
2022-12-14T08:24:19.296Z,99943.53
2022-12-14T08:26:49.347Z,99933.97
2022-12-14T08:29:19.263Z,99928.59
2022-12-14T08:31:48.128Z,99930.56
2022-12-14T08:34:22.177Z,99933.19
2022-12-14T08:36:52.129Z,99943.25
2022-12-14T08:39:21.278Z,99939.19
2022-12-14T08:41:49.599Z,99926.47
2022-12-14T08:44:18.784Z,99917.47
2022-12-14T08:46:47.900Z,99912.72
2022-12-14T08:49:16.532Z,99916.06
2022-12-14T08:51:44.805Z,99896.25
2022-12-14T08:54:14.745Z,99893.00
2022-12-14T08:56:43.161Z,99898.13
2022-12-14T08:59:24.723Z,99887.03
2022-12-14T09:02:00.597Z,99882.22
2022-12-14T09:04:29.202Z,99879.56
2022-12-14T09:06:57.701Z,99882.66
2022-12-14T09:09:27.888Z,99879.13
2022-12-14T09:11:56.205Z,99880.91
2022-12-14T09:14:24.462Z,99877.91
2022-12-14T09:16:52.786Z,99877.16
2022-12-14T09:19:21.148Z,99871.88
2022-12-14T09:21:49.458Z,99863.69
2022-12-14T09:24:18.096Z,99857.84
2022-12-14T09:26:48.154Z,99853.78
2022-12-14T09:29:18.572Z,99848.25
2022-12-14T09:31:48.378Z,99852.41
2022-12-14T09:34:17.185Z,99849.25
2022-12-14T09:36:45.878Z,99836.16
2022-12-14T09:39:15.364Z,99834.25
2022-12-14T09:42:03.221Z,99833.75
2022-12-14T09:44:49.945Z,99835.09
2022-12-14T09:47:22.703Z,99825.81
2022-12-14T09:49:56.367Z,99826.31
2022-12-14T09:52:35.841Z,99826.44
2022-12-14T09:55:16.826Z,99823.22
2022-12-14T09:57:48.535Z,99823.75
2022-12-14T10:00:20.312Z,99832.72
2022-12-14T10:03:07.198Z,99833.50
2022-12-14T10:05:55.713Z,99839.53
2022-12-14T10:08:29.625Z,99830.47
2022-12-14T10:11:09.129Z,99823.19
2022-12-14T10:13:52.227Z,99816.72
2022-12-14T10:16:32.967Z,99813.47
2022-12-14T10:19:31.108Z,99803.34
2022-12-14T10:22:04.059Z,99799.66
2022-12-14T10:24:37.946Z,99793.53
2022-12-14T10:27:11.899Z,99791.19
2022-12-14T10:29:47.987Z,99782.72
2022-12-14T10:32:23.916Z,99774.50
2022-12-14T10:34:56.250Z,99776.97
2022-12-14T10:37:30.659Z,99772.56
2022-12-14T10:40:24.766Z,99759.09
2022-12-14T10:43:18.906Z,99752.66
2022-12-14T10:46:00.040Z,99758.97
2022-12-14T10:48:42.925Z,99750.16
2022-12-14T10:51:17.726Z,99745.91
2022-12-14T10:53:52.905Z,99735.09
2022-12-14T10:56:27.397Z,99735.91
2022-12-14T10:59:43.786Z,99730.78
2022-12-14T11:02:25.468Z,99722.50
2022-12-14T11:04:57.645Z,99719.31
2022-12-14T11:07:37.989Z,99715.59
2022-12-14T11:10:19.041Z,99706.50
2022-12-14T11:13:02.276Z,99706.41
2022-12-14T11:15:36.184Z,99705.97
2022-12-14T11:18:24.281Z,99704.50
2022-12-14T11:20:56.403Z,99705.38
2022-12-14T11:23:29.209Z,99694.69
2022-12-14T11:26:00.024Z,99698.28
2022-12-14T11:28:37.198Z,99687.13
2022-12-14T11:31:10.072Z,99684.03
2022-12-14T11:33:49.954Z,99695.13
2022-12-14T11:36:35.232Z,99701.47
2022-12-14T11:39:07.837Z,99701.53
2022-12-14T11:41:38.789Z,99706.19
2022-12-14T11:44:23.888Z,99709.53
2022-12-14T11:47:02.093Z,99707.44
2022-12-14T11:49:43.079Z,99721.78
2022-12-14T11:52:15.746Z,99710.53
2022-12-14T11:54:50.150Z,99708.91
2022-12-14T11:57:25.801Z,99719.84
2022-12-14T11:59:58.196Z,99718.44
2022-12-14T12:02:31.626Z,99728.47
2022-12-14T12:05:08.786Z,99713.91
2022-12-14T12:07:40.655Z,99707.75
2022-12-14T12:10:21.099Z,99706.59
2022-12-14T12:12:54.670Z,99702.50
2022-12-14T12:15:27.125Z,99710.47
2022-12-14T12:18:02.059Z,99705.06
2022-12-14T12:20:39.531Z,99698.69
2022-12-14T12:23:16.229Z,99695.97
2022-12-14T12:25:48.796Z,99693.22
2022-12-14T12:28:24.080Z,99697.16
2022-12-14T12:30:57.737Z,99692.63
2022-12-14T12:33:34.287Z,99691.41
2022-12-14T12:36:07.010Z,99692.69
2022-12-14T12:39:03.411Z,99683.91
2022-12-14T12:41:45.783Z,99681.94
2022-12-14T12:44:26.929Z,99678.41
2022-12-14T12:49:55.678Z,99678.28
2022-12-14T12:52:30.538Z,99673.88
2022-12-14T12:55:04.224Z,99678.03
2022-12-14T12:57:41.720Z,99671.03
2022-12-14T13:00:19.189Z,99666.03
2022-12-14T13:02:52.977Z,99664.09
2022-12-14T13:05:56.085Z,99675.03
2022-12-14T13:08:26.793Z,99658.94
2022-12-14T13:13:52.956Z,99659.50
2022-12-14T13:16:27.646Z,99660.19
2022-12-14T13:19:32.053Z,99659.91
2022-12-14T13:21:59.166Z,99651.94
2022-12-14T13:24:34.068Z,99650.03
2022-12-14T13:27:36.716Z,99643.13
2022-12-14T13:30:26.065Z,99637.94
2022-12-14T13:33:16.735Z,99642.78
2022-12-14T13:36:20.961Z,99641.63
2022-12-14T13:39:22.895Z,99633.84
2022-12-14T13:41:59.414Z,99636.28
2022-12-14T13:44:55.696Z,99631.13
2022-12-14T13:47:31.420Z,99625.88
2022-12-14T13:52:56.010Z,99623.97
2022-12-14T13:55:33.638Z,99628.88
2022-12-14T13:58:21.699Z,99613.69
2022-12-14T14:00:59.743Z,99610.06
2022-12-14T14:03:54.158Z,99620.13
2022-12-14T14:06:43.434Z,99622.47
2022-12-14T14:10:02.667Z,99599.41
2022-12-14T14:12:44.563Z,99602.69
2022-12-14T14:16:26.920Z,99607.50
2022-12-14T14:18:54.355Z,99604.69
2022-12-14T14:22:06.311Z,99588.75
2022-12-14T14:24:51.354Z,99589.31
2022-12-14T14:27:24.402Z,99588.41
2022-12-14T14:29:53.676Z,99586.63
2022-12-14T14:32:42.037Z,99592.44
2022-12-14T14:35:26.897Z,99590.72
2022-12-14T14:37:59.937Z,99588.09
2022-12-14T14:41:14.077Z,99590.63
2022-12-14T14:43:31.316Z,99585.50
2022-12-14T14:46:03.764Z,99587.97
2022-12-14T14:48:38.810Z,99576.13
2022-12-14T14:51:21.079Z,99573.56
2022-12-14T14:53:50.749Z,99577.78
2022-12-14T14:56:40.282Z,99565.94
2022-12-14T14:59:50.723Z,99570.06
2022-12-14T15:02:32.105Z,99576.75
2022-12-14T15:05:41.579Z,99564.81
2022-12-14T15:07:58.709Z,99553.75
2022-12-14T15:10:35.936Z,99553.69
2022-12-14T15:13:11.138Z,99546.88
2022-12-14T15:15:45.433Z,99538.22
2022-12-14T15:18:24.977Z,99537.50
2022-12-14T15:21:02.869Z,99535.66
2022-12-14T15:23:37.577Z,99524.66
2022-12-14T15:26:17.262Z,99521.16
2022-12-14T15:28:50.586Z,99520.31
2022-12-14T15:31:22.238Z,99526.88
2022-12-14T15:33:53.129Z,99512.50
2022-12-14T15:36:29.733Z,99509.16
2022-12-14T15:38:59.345Z,99518.44
2022-12-14T15:41:30.573Z,99515.16
2022-12-14T15:44:00.506Z,99505.72
2022-12-14T15:46:31.978Z,99501.56
2022-12-14T15:49:04.502Z,99504.94
2022-12-14T15:51:38.496Z,99500.63
2022-12-14T15:54:16.099Z,99496.53
2022-12-14T15:56:49.236Z,99507.50
2022-12-14T15:59:21.674Z,99487.47
2022-12-14T16:02:00.000Z,99493.47
2022-12-14T16:04:33.537Z,99480.22
2022-12-14T16:07:10.077Z,99481.81
2022-12-14T16:09:43.367Z,99479.25
2022-12-14T16:12:21.019Z,99470.84
2022-12-14T16:14:56.989Z,99463.16
2022-12-14T16:17:31.093Z,99473.25
2022-12-14T16:20:03.569Z,99483.28
2022-12-14T16:22:34.373Z,99472.38
2022-12-14T16:25:20.162Z,99462.22
2022-12-14T16:27:52.867Z,99461.34
2022-12-14T16:30:30.427Z,99462.16
2022-12-14T16:33:16.734Z,99454.63
2022-12-14T16:35:47.553Z,99455.53
2022-12-14T16:38:20.045Z,99457.78
2022-12-14T16:40:58.701Z,99442.47
2022-12-14T16:43:35.681Z,99441.00
2022-12-14T16:46:14.461Z,99450.25
2022-12-14T16:49:29.288Z,99447.81
2022-12-14T16:52:07.784Z,99428.44
2022-12-14T16:54:39.784Z,99450.25
2022-12-14T16:57:20.353Z,99442.84
2022-12-14T16:59:59.050Z,99431.19
2022-12-14T17:02:33.690Z,99427.97
2022-12-14T17:05:12.310Z,99422.25
2022-12-14T17:07:42.530Z,99433.22
2022-12-14T17:10:17.356Z,99416.47
2022-12-14T17:12:46.046Z,99416.47
2022-12-14T17:15:15.715Z,99416.47
2022-12-14T17:17:49.432Z,99407.25
2022-12-14T17:20:26.664Z,99416.38
2022-12-14T17:22:58.688Z,99399.69
2022-12-14T17:25:30.284Z,99403.97
2022-12-14T17:28:00.190Z,99400.66
2022-12-14T17:30:30.044Z,99396.47
2022-12-14T17:32:59.878Z,99385.56
2022-12-14T17:35:32.284Z,99379.69
2022-12-14T17:38:01.136Z,99378.78
2022-12-14T17:40:31.104Z,99376.25
2022-12-14T17:43:03.498Z,99372.72
2022-12-14T17:45:32.210Z,99366.88
2022-12-14T17:48:00.994Z,99359.13
2022-12-14T17:50:31.091Z,99363.22
2022-12-14T17:53:00.900Z,99353.00
2022-12-14T17:55:31.300Z,99350.53
2022-12-14T17:58:01.629Z,99357.19
2022-12-14T18:01:01.280Z,99336.16
2022-12-14T18:03:32.423Z,99344.53
2022-12-14T18:06:02.382Z,99335.34
2022-12-14T18:08:34.986Z,99324.53
2022-12-14T18:11:13.367Z,99333.75
2022-12-14T18:13:43.443Z,99336.31
2022-12-14T18:16:15.687Z,99334.78
2022-12-14T18:18:47.602Z,99323.06
2022-12-14T18:21:23.226Z,99334.00
2022-12-14T18:23:54.646Z,99326.34
2022-12-14T18:26:25.635Z,99334.88
2022-12-14T18:28:56.566Z,99327.13
2022-12-14T18:31:30.072Z,99320.41
2022-12-14T18:33:59.015Z,99331.25
2022-12-14T18:36:27.771Z,99332.97
2022-12-14T18:38:57.079Z,99322.91
2022-12-14T18:41:29.638Z,99316.22
2022-12-14T18:43:58.315Z,99325.50
2022-12-14T18:46:27.355Z,99312.97
2022-12-14T18:48:57.308Z,99306.28
2022-12-14T18:51:27.039Z,99305.31
2022-12-14T18:53:58.464Z,99300.28
2022-12-14T18:56:29.385Z,99306.16
2022-12-14T18:59:00.406Z,99297.91
2022-12-14T19:01:29.221Z,99298.06
2022-12-14T19:03:58.703Z,99304.91
2022-12-14T19:06:43.923Z,99299.16
2022-12-14T19:09:14.712Z,99295.78
2022-12-14T19:11:48.680Z,99290.72
2022-12-14T19:14:17.452Z,99283.06
2022-12-14T19:16:45.928Z,99296.41
2022-12-14T19:19:15.079Z,99301.44
2022-12-14T19:21:44.073Z,99300.66
2022-12-14T19:24:14.534Z,99314.00
2022-12-14T19:26:44.284Z,99295.63
2022-12-14T19:29:18.682Z,99305.72
2022-12-14T19:31:50.585Z,99310.88
2022-12-14T19:34:22.735Z,99308.47
2022-12-14T19:36:51.313Z,99302.63
2022-12-14T19:39:20.062Z,99295.91
2022-12-14T19:41:50.117Z,99293.41
2022-12-14T19:44:18.867Z,99296.81
2022-12-14T19:46:48.365Z,99287.59
2022-12-14T19:49:17.343Z,99275.91
2022-12-14T19:51:45.709Z,99289.47
2022-12-14T19:54:16.686Z,99273.59
2022-12-14T19:56:45.961Z,99292.16
2022-12-14T19:59:19.437Z,99277.16
2022-12-14T20:01:49.174Z,99275.53
2022-12-14T20:04:18.189Z,99264.63
2022-12-14T20:06:46.982Z,99257.91
2022-12-14T20:09:17.935Z,99252.09
2022-12-14T20:11:47.168Z,99248.75
2022-12-14T20:14:16.532Z,99246.22
2022-12-14T20:16:47.746Z,99247.16
2022-12-14T20:19:16.446Z,99244.69
2022-12-14T20:21:45.386Z,99238.06
2022-12-14T20:24:14.703Z,99235.69
2022-12-14T20:26:43.222Z,99212.31
2022-12-14T20:29:12.955Z,99209.94
2022-12-14T20:31:41.877Z,99206.53
2022-12-14T20:34:13.845Z,99209.84
2022-12-14T20:36:42.739Z,99222.56
2022-12-14T20:39:12.930Z,99221.03
2022-12-14T20:41:41.767Z,99221.09
2022-12-14T20:44:12.261Z,99232.13
2022-12-14T20:46:43.696Z,99223.75
2022-12-14T20:49:16.196Z,99232.13
2022-12-14T20:51:46.459Z,99219.56
2022-12-14T20:54:17.109Z,99210.28
2022-12-14T20:56:49.165Z,99198.47
2022-12-14T20:59:18.595Z,99191.66
2022-12-14T21:01:51.986Z,99212.81
2022-12-14T21:04:26.136Z,99192.50
2022-12-14T21:06:54.817Z,99181.66
2022-12-14T21:09:23.367Z,99181.72
2022-12-14T21:12:10.215Z,99169.25
2022-12-14T21:14:42.518Z,99165.19
2022-12-14T21:17:11.702Z,99170.34
2022-12-14T21:19:42.066Z,99166.16
2022-12-14T21:22:16.136Z,99164.56
2022-12-14T21:27:33.953Z,99161.09
2022-12-14T21:30:03.424Z,99155.94
2022-12-14T21:32:31.826Z,99153.47
2022-12-14T21:35:03.000Z,99159.31
2022-12-14T21:37:31.633Z,99153.44
2022-12-14T21:40:03.958Z,99151.75
2022-12-14T21:42:31.320Z,99151.78
2022-12-14T21:44:59.613Z,99141.56
2022-12-14T21:47:30.358Z,99139.06
2022-12-14T21:49:59.013Z,99129.00
2022-12-14T21:52:29.562Z,99122.16
2022-12-14T21:54:59.835Z,99119.66
2022-12-14T21:57:49.484Z,99119.59
2022-12-14T22:00:19.750Z,99128.91
2022-12-14T22:02:48.405Z,99120.50
2022-12-14T22:05:17.342Z,99117.25
2022-12-14T22:07:47.092Z,99110.59
2022-12-14T22:10:19.882Z,99096.31
2022-12-14T22:12:51.505Z,99104.84
2022-12-14T22:15:19.854Z,99100.72
2022-12-14T22:17:48.180Z,99103.25
2022-12-14T22:20:17.010Z,99104.94
2022-12-14T22:22:46.673Z,99104.19
2022-12-14T22:25:15.540Z,99097.50
2022-12-14T22:27:44.527Z,99100.88
2022-12-14T22:30:18.924Z,99101.81
2022-12-14T22:32:48.024Z,99088.31
2022-12-14T22:35:16.753Z,99091.75
2022-12-14T22:37:46.628Z,99075.81
2022-12-14T22:40:15.317Z,99080.03
2022-12-14T22:42:43.837Z,99085.13
2022-12-14T22:45:12.483Z,99079.22
2022-12-14T22:47:40.920Z,99081.69
2022-12-14T22:50:10.479Z,99085.16
2022-12-14T22:52:39.022Z,99075.22
2022-12-14T22:55:10.150Z,99072.00
2022-12-14T22:57:42.501Z,99070.38
2022-12-14T23:00:16.420Z,99063.72
2022-12-14T23:02:48.221Z,99057.00
2022-12-14T23:05:17.710Z,99051.00
2022-12-14T23:07:46.020Z,99051.94
2022-12-14T23:10:33.346Z,99051.00
2022-12-14T23:13:19.275Z,99046.03
2022-12-14T23:16:05.090Z,99040.09
2022-12-14T23:18:50.746Z,99042.75
2022-12-14T23:21:36.980Z,99040.19
2022-12-14T23:24:24.996Z,99034.25
2022-12-14T23:27:11.957Z,99031.63
2022-12-14T23:29:57.669Z,99031.63
2022-12-14T23:32:43.527Z,99027.53
2022-12-14T23:35:29.406Z,99026.59
2022-12-14T23:38:15.353Z,99016.50
2022-12-14T23:41:00.954Z,99011.50
2022-12-14T23:43:48.189Z,99012.31
2022-12-14T23:46:34.154Z,99009.81
2022-12-14T23:49:19.810Z,99002.38
2022-12-14T23:52:05.684Z,99014.03
2022-12-14T23:54:51.541Z,99004.88
2022-12-14T23:57:37.251Z,99004.84
